sensor_id;sensor_type;location;lat;lon;timestamp;P1;durP1;ratioP1;P2;durP2;ratioP2
84662;SDS011;74891;59.208;18.220;2024-03-08T00:00:13;4.18;;;2.15;;
84662;SDS011;74891;59.208;18.220;2024-03-08T00:02:45;3.97;;;2.13;;
84662;SDS011;74891;59.208;18.220;2024-03-08T00:05:14;9.35;;;3.10;;
84662;SDS011;74891;59.208;18.220;2024-03-08T00:07:48;8.93;;;2.88;;
84662;SDS011;74891;59.208;18.220;2024-03-08T00:10:14;7.72;;;2.80;;
84662;SDS011;74891;59.208;18.220;2024-03-08T00:12:39;7.07;;;2.75;;
84662;SDS011;74891;59.208;18.220;2024-03-08T00:15:13;7.38;;;2.70;;
84662;SDS011;74891;59.208;18.220;2024-03-08T00:17:40;8.10;;;3.00;;
84662;SDS011;74891;59.208;18.220;2024-03-08T00:20:08;11.68;;;3.83;;
84662;SDS011;74891;59.208;18.220;2024-03-08T00:22:35;11.55;;;4.43;;
84662;SDS011;74891;59.208;18.220;2024-03-08T00:25:01;19.50;;;5.10;;
84662;SDS011;74891;59.208;18.220;2024-03-08T00:27:27;12.10;;;4.13;;
84662;SDS011;74891;59.208;18.220;2024-03-08T00:32:37;11.15;;;4.05;;
84662;SDS011;74891;59.208;18.220;2024-03-08T00:35:02;13.07;;;3.78;;
84662;SDS011;74891;59.208;18.220;2024-03-08T00:37:28;11.25;;;3.60;;
84662;SDS011;74891;59.208;18.220;2024-03-08T00:39:54;13.70;;;4.18;;
84662;SDS011;74891;59.208;18.220;2024-03-08T00:42:19;8.18;;;3.63;;
84662;SDS011;74891;59.208;18.220;2024-03-08T00:44:46;9.93;;;3.70;;
84662;SDS011;74891;59.208;18.220;2024-03-08T00:47:15;8.95;;;3.60;;
84662;SDS011;74891;59.208;18.220;2024-03-08T00:49:41;20.10;;;3.97;;
84662;SDS011;74891;59.208;18.220;2024-03-08T00:52:07;12.95;;;3.45;;
84662;SDS011;74891;59.208;18.220;2024-03-08T00:57:10;17.97;;;4.37;;
84662;SDS011;74891;59.208;18.220;2024-03-08T00:59:37;8.77;;;3.50;;
84662;SDS011;74891;59.208;18.220;2024-03-08T01:02:03;15.45;;;3.80;;
84662;SDS011;74891;59.208;18.220;2024-03-08T01:04:29;10.77;;;3.80;;
84662;SDS011;74891;59.208;18.220;2024-03-08T01:06:58;7.93;;;3.60;;
84662;SDS011;74891;59.208;18.220;2024-03-08T01:09:24;7.35;;;3.13;;
84662;SDS011;74891;59.208;18.220;2024-03-08T01:11:54;8.52;;;3.00;;
84662;SDS011;74891;59.208;18.220;2024-03-08T01:14:20;13.40;;;3.50;;
84662;SDS011;74891;59.208;18.220;2024-03-08T01:16:53;7.30;;;3.13;;
84662;SDS011;74891;59.208;18.220;2024-03-08T01:19:20;9.73;;;3.30;;
84662;SDS011;74891;59.208;18.220;2024-03-08T01:21:45;7.65;;;2.92;;
84662;SDS011;74891;59.208;18.220;2024-03-08T01:24:11;9.95;;;3.83;;
84662;SDS011;74891;59.208;18.220;2024-03-08T01:26:37;10.13;;;3.83;;
84662;SDS011;74891;59.208;18.220;2024-03-08T01:29:02;10.68;;;4.07;;
84662;SDS011;74891;59.208;18.220;2024-03-08T01:31:31;13.15;;;4.28;;
84662;SDS011;74891;59.208;18.220;2024-03-08T01:33:57;10.10;;;3.83;;
84662;SDS011;74891;59.208;18.220;2024-03-08T01:39:48;12.05;;;4.45;;
84662;SDS011;74891;59.208;18.220;2024-03-08T01:42:17;18.27;;;4.43;;
84662;SDS011;74891;59.208;18.220;2024-03-08T01:44:43;15.48;;;4.50;;
84662;SDS011;74891;59.208;18.220;2024-03-08T01:47:09;9.98;;;3.70;;
84662;SDS011;74891;59.208;18.220;2024-03-08T01:49:36;10.90;;;3.53;;
84662;SDS011;74891;59.208;18.220;2024-03-08T01:52:03;8.32;;;3.28;;
84662;SDS011;74891;59.208;18.220;2024-03-08T01:54:29;17.85;;;4.55;;
84662;SDS011;74891;59.208;18.220;2024-03-08T01:57:10;16.40;;;5.28;;
84662;SDS011;74891;59.208;18.220;2024-03-08T01:59:37;10.70;;;3.25;;
84662;SDS011;74891;59.208;18.220;2024-03-08T02:02:03;10.23;;;3.88;;
84662;SDS011;74891;59.208;18.220;2024-03-08T02:04:35;9.20;;;3.55;;
84662;SDS011;74891;59.208;18.220;2024-03-08T02:07:03;10.73;;;3.85;;
84662;SDS011;74891;59.208;18.220;2024-03-08T02:09:30;7.97;;;2.75;;
84662;SDS011;74891;59.208;18.220;2024-03-08T02:12:17;10.77;;;3.67;;
84662;SDS011;74891;59.208;18.220;2024-03-08T02:14:46;11.70;;;3.40;;
84662;SDS011;74891;59.208;18.220;2024-03-08T02:17:12;8.32;;;2.92;;
84662;SDS011;74891;59.208;18.220;2024-03-08T02:19:38;13.73;;;3.95;;
84662;SDS011;74891;59.208;18.220;2024-03-08T02:22:06;6.50;;;3.20;;
84662;SDS011;74891;59.208;18.220;2024-03-08T02:24:32;12.38;;;3.50;;
84662;SDS011;74891;59.208;18.220;2024-03-08T02:26:58;8.18;;;3.42;;
84662;SDS011;74891;59.208;18.220;2024-03-08T02:29:24;8.50;;;3.03;;
84662;SDS011;74891;59.208;18.220;2024-03-08T02:31:53;6.97;;;2.97;;
84662;SDS011;74891;59.208;18.220;2024-03-08T02:34:20;5.40;;;2.83;;
84662;SDS011;74891;59.208;18.220;2024-03-08T02:36:46;8.25;;;3.20;;
84662;SDS011;74891;59.208;18.220;2024-03-08T02:39:12;7.28;;;3.35;;
84662;SDS011;74891;59.208;18.220;2024-03-08T02:41:40;9.88;;;2.33;;
84662;SDS011;74891;59.208;18.220;2024-03-08T02:44:07;11.10;;;3.28;;
84662;SDS011;74891;59.208;18.220;2024-03-08T02:46:33;8.98;;;2.83;;
84662;SDS011;74891;59.208;18.220;2024-03-08T02:49:00;6.93;;;3.13;;
84662;SDS011;74891;59.208;18.220;2024-03-08T02:54:14;6.65;;;2.60;;
84662;SDS011;74891;59.208;18.220;2024-03-08T02:56:48;9.75;;;2.50;;
84662;SDS011;74891;59.208;18.220;2024-03-08T02:59:16;6.68;;;2.90;;
84662;SDS011;74891;59.208;18.220;2024-03-08T03:01:42;5.00;;;2.42;;
84662;SDS011;74891;59.208;18.220;2024-03-08T03:04:10;5.97;;;2.83;;
84662;SDS011;74891;59.208;18.220;2024-03-08T03:06:36;7.22;;;3.15;;
84662;SDS011;74891;59.208;18.220;2024-03-08T03:09:02;14.00;;;2.58;;
84662;SDS011;74891;59.208;18.220;2024-03-08T03:11:28;12.25;;;3.28;;
84662;SDS011;74891;59.208;18.220;2024-03-08T03:13:53;7.88;;;2.70;;
84662;SDS011;74891;59.208;18.220;2024-03-08T03:16:19;9.02;;;2.92;;
84662;SDS011;74891;59.208;18.220;2024-03-08T03:18:48;7.70;;;2.70;;
84662;SDS011;74891;59.208;18.220;2024-03-08T03:23:46;7.85;;;2.28;;
84662;SDS011;74891;59.208;18.220;2024-03-08T03:26:13;7.95;;;2.30;;
84662;SDS011;74891;59.208;18.220;2024-03-08T03:28:38;4.88;;;2.55;;
84662;SDS011;74891;59.208;18.220;2024-03-08T03:31:07;6.10;;;1.92;;
84662;SDS011;74891;59.208;18.220;2024-03-08T03:33:35;5.18;;;2.22;;
84662;SDS011;74891;59.208;18.220;2024-03-08T03:36:03;5.53;;;2.53;;
84662;SDS011;74891;59.208;18.220;2024-03-08T03:38:30;6.50;;;2.55;;
84662;SDS011;74891;59.208;18.220;2024-03-08T03:40:56;6.18;;;2.65;;
84662;SDS011;74891;59.208;18.220;2024-03-08T03:43:29;8.50;;;2.30;;
84662;SDS011;74891;59.208;18.220;2024-03-08T03:45:54;9.80;;;2.85;;
84662;SDS011;74891;59.208;18.220;2024-03-08T03:48:20;5.75;;;2.60;;
84662;SDS011;74891;59.208;18.220;2024-03-08T03:50:48;11.23;;;3.22;;
84662;SDS011;74891;59.208;18.220;2024-03-08T03:53:16;5.65;;;2.42;;
84662;SDS011;74891;59.208;18.220;2024-03-08T03:55:42;9.50;;;3.20;;
84662;SDS011;74891;59.208;18.220;2024-03-08T03:58:16;9.10;;;2.85;;
84662;SDS011;74891;59.208;18.220;2024-03-08T04:00:41;9.35;;;2.88;;
84662;SDS011;74891;59.208;18.220;2024-03-08T04:03:09;9.45;;;2.53;;
84662;SDS011;74891;59.208;18.220;2024-03-08T04:05:35;9.65;;;2.28;;
84662;SDS011;74891;59.208;18.220;2024-03-08T04:08:00;7.55;;;2.53;;
84662;SDS011;74891;59.208;18.220;2024-03-08T04:10:29;4.30;;;2.28;;
84662;SDS011;74891;59.208;18.220;2024-03-08T04:12:57;8.75;;;2.45;;
84662;SDS011;74891;59.208;18.220;2024-03-08T04:15:23;7.30;;;2.28;;
84662;SDS011;74891;59.208;18.220;2024-03-08T04:17:48;11.23;;;2.78;;
84662;SDS011;74891;59.208;18.220;2024-03-08T04:20:14;5.00;;;2.17;;
84662;SDS011;74891;59.208;18.220;2024-03-08T04:22:42;10.40;;;2.72;;
84662;SDS011;74891;59.208;18.220;2024-03-08T04:25:09;7.70;;;2.42;;
84662;SDS011;74891;59.208;18.220;2024-03-08T04:27:35;6.78;;;2.17;;
84662;SDS011;74891;59.208;18.220;2024-03-08T04:30:01;5.07;;;2.10;;
84662;SDS011;74891;59.208;18.220;2024-03-08T04:32:27;5.65;;;2.03;;
84662;SDS011;74891;59.208;18.220;2024-03-08T04:34:57;3.85;;;1.95;;
84662;SDS011;74891;59.208;18.220;2024-03-08T04:37:23;8.05;;;2.25;;
84662;SDS011;74891;59.208;18.220;2024-03-08T04:39:50;4.80;;;2.22;;
84662;SDS011;74891;59.208;18.220;2024-03-08T04:42:15;5.82;;;1.95;;
84662;SDS011;74891;59.208;18.220;2024-03-08T04:44:43;6.38;;;2.20;;
84662;SDS011;74891;59.208;18.220;2024-03-08T04:47:08;6.97;;;2.45;;
84662;SDS011;74891;59.208;18.220;2024-03-08T04:49:35;4.93;;;2.15;;
84662;SDS011;74891;59.208;18.220;2024-03-08T04:52:03;7.95;;;2.20;;
84662;SDS011;74891;59.208;18.220;2024-03-08T04:54:40;7.28;;;2.42;;
84662;SDS011;74891;59.208;18.220;2024-03-08T04:57:06;6.97;;;2.22;;
84662;SDS011;74891;59.208;18.220;2024-03-08T04:59:45;7.68;;;1.92;;
84662;SDS011;74891;59.208;18.220;2024-03-08T05:02:11;4.78;;;2.28;;
84662;SDS011;74891;59.208;18.220;2024-03-08T05:04:36;4.78;;;2.25;;
84662;SDS011;74891;59.208;18.220;2024-03-08T05:07:02;9.82;;;2.08;;
84662;SDS011;74891;59.208;18.220;2024-03-08T05:09:27;8.30;;;2.15;;
84662;SDS011;74891;59.208;18.220;2024-03-08T05:11:57;5.00;;;2.15;;
84662;SDS011;74891;59.208;18.220;2024-03-08T05:14:24;5.88;;;2.13;;
84662;SDS011;74891;59.208;18.220;2024-03-08T05:16:50;9.93;;;1.80;;
84662;SDS011;74891;59.208;18.220;2024-03-08T05:19:19;3.33;;;1.98;;
84662;SDS011;74891;59.208;18.220;2024-03-08T05:21:51;9.90;;;2.55;;
84662;SDS011;74891;59.208;18.220;2024-03-08T05:24:19;8.63;;;2.53;;
84662;SDS011;74891;59.208;18.220;2024-03-08T05:26:47;4.93;;;2.03;;
84662;SDS011;74891;59.208;18.220;2024-03-08T05:29:15;2.70;;;1.90;;
84662;SDS011;74891;59.208;18.220;2024-03-08T05:31:50;7.10;;;2.35;;
84662;SDS011;74891;59.208;18.220;2024-03-08T05:34:20;3.38;;;1.90;;
84662;SDS011;74891;59.208;18.220;2024-03-08T05:36:49;6.28;;;2.38;;
84662;SDS011;74891;59.208;18.220;2024-03-08T05:41:42;4.25;;;1.90;;
84662;SDS011;74891;59.208;18.220;2024-03-08T05:44:11;4.50;;;1.90;;
84662;SDS011;74891;59.208;18.220;2024-03-08T05:46:38;4.13;;;1.52;;
84662;SDS011;74891;59.208;18.220;2024-03-08T05:49:04;3.08;;;2.05;;
84662;SDS011;74891;59.208;18.220;2024-03-08T05:51:34;5.95;;;1.80;;
84662;SDS011;74891;59.208;18.220;2024-03-08T05:54:17;6.72;;;2.40;;
84662;SDS011;74891;59.208;18.220;2024-03-08T05:56:47;3.75;;;1.75;;
84662;SDS011;74891;59.208;18.220;2024-03-08T05:59:13;6.97;;;1.40;;
84662;SDS011;74891;59.208;18.220;2024-03-08T06:01:38;3.75;;;1.85;;
84662;SDS011;74891;59.208;18.220;2024-03-08T06:04:15;5.10;;;1.92;;
84662;SDS011;74891;59.208;18.220;2024-03-08T06:06:43;3.33;;;1.58;;
84662;SDS011;74891;59.208;18.220;2024-03-08T06:09:08;3.30;;;1.73;;
84662;SDS011;74891;59.208;18.220;2024-03-08T06:11:42;4.45;;;1.73;;
84662;SDS011;74891;59.208;18.220;2024-03-08T06:14:08;8.82;;;1.98;;
84662;SDS011;74891;59.208;18.220;2024-03-08T06:16:36;4.72;;;2.17;;
84662;SDS011;74891;59.208;18.220;2024-03-08T06:19:10;6.57;;;1.92;;
84662;SDS011;74891;59.208;18.220;2024-03-08T06:21:35;4.90;;;1.92;;
84662;SDS011;74891;59.208;18.220;2024-03-08T06:24:04;3.28;;;2.38;;
84662;SDS011;74891;59.208;18.220;2024-03-08T06:26:29;6.53;;;2.47;;
84662;SDS011;74891;59.208;18.220;2024-03-08T06:28:57;7.43;;;2.65;;
84662;SDS011;74891;59.208;18.220;2024-03-08T06:37:08;7.10;;;2.78;;
84662;SDS011;74891;59.208;18.220;2024-03-08T06:39:34;11.60;;;2.40;;
84662;SDS011;74891;59.208;18.220;2024-03-08T06:42:00;13.15;;;3.97;;
84662;SDS011;74891;59.208;18.220;2024-03-08T06:44:29;12.43;;;3.30;;
84662;SDS011;74891;59.208;18.220;2024-03-08T06:46:58;5.28;;;2.58;;
84662;SDS011;74891;59.208;18.220;2024-03-08T06:49:30;7.88;;;3.22;;
84662;SDS011;74891;59.208;18.220;2024-03-08T06:51:56;7.25;;;2.45;;
84662;SDS011;74891;59.208;18.220;2024-03-08T06:54:22;5.70;;;2.70;;
84662;SDS011;74891;59.208;18.220;2024-03-08T06:56:50;8.00;;;2.40;;
84662;SDS011;74891;59.208;18.220;2024-03-08T06:59:15;6.57;;;2.40;;
84662;SDS011;74891;59.208;18.220;2024-03-08T07:01:44;3.42;;;2.08;;
84662;SDS011;74891;59.208;18.220;2024-03-08T07:04:12;6.70;;;2.22;;
84662;SDS011;74891;59.208;18.220;2024-03-08T07:06:41;5.25;;;2.05;;
84662;SDS011;74891;59.208;18.220;2024-03-08T07:09:12;4.22;;;2.22;;
84662;SDS011;74891;59.208;18.220;2024-03-08T07:11:37;6.78;;;2.42;;
84662;SDS011;74891;59.208;18.220;2024-03-08T07:14:07;5.80;;;1.92;;
84662;SDS011;74891;59.208;18.220;2024-03-08T07:16:37;4.05;;;1.80;;
84662;SDS011;74891;59.208;18.220;2024-03-08T07:19:04;4.47;;;1.80;;
84662;SDS011;74891;59.208;18.220;2024-03-08T07:21:30;4.38;;;2.10;;
84662;SDS011;74891;59.208;18.220;2024-03-08T07:23:56;4.38;;;1.80;;
84662;SDS011;74891;59.208;18.220;2024-03-08T07:26:24;3.92;;;1.73;;
84662;SDS011;74891;59.208;18.220;2024-03-08T07:28:51;4.10;;;1.88;;
84662;SDS011;74891;59.208;18.220;2024-03-08T07:31:20;5.32;;;1.83;;
84662;SDS011;74891;59.208;18.220;2024-03-08T07:33:51;6.53;;;2.00;;
84662;SDS011;74891;59.208;18.220;2024-03-08T07:36:19;4.57;;;1.70;;
84662;SDS011;74891;59.208;18.220;2024-03-08T07:41:39;3.92;;;1.85;;
84662;SDS011;74891;59.208;18.220;2024-03-08T07:44:06;5.88;;;2.42;;
84662;SDS011;74891;59.208;18.220;2024-03-08T07:46:35;4.78;;;1.60;;
84662;SDS011;74891;59.208;18.220;2024-03-08T07:49:02;4.20;;;1.75;;
84662;SDS011;74891;59.208;18.220;2024-03-08T07:51:36;2.65;;;1.73;;
84662;SDS011;74891;59.208;18.220;2024-03-08T07:54:02;4.72;;;1.92;;
84662;SDS011;74891;59.208;18.220;2024-03-08T07:56:29;3.38;;;1.85;;
84662;SDS011;74891;59.208;18.220;2024-03-08T07:58:55;10.10;;;2.50;;
84662;SDS011;74891;59.208;18.220;2024-03-08T08:01:21;4.90;;;2.30;;
84662;SDS011;74891;59.208;18.220;2024-03-08T08:03:49;5.75;;;2.40;;
84662;SDS011;74891;59.208;18.220;2024-03-08T08:06:18;5.32;;;1.83;;
84662;SDS011;74891;59.208;18.220;2024-03-08T08:08:44;8.10;;;2.38;;
84662;SDS011;74891;59.208;18.220;2024-03-08T08:11:13;3.40;;;1.70;;
84662;SDS011;74891;59.208;18.220;2024-03-08T08:13:40;6.28;;;2.03;;
84662;SDS011;74891;59.208;18.220;2024-03-08T08:16:08;6.50;;;2.50;;
84662;SDS011;74891;59.208;18.220;2024-03-08T08:18:34;12.95;;;3.78;;
84662;SDS011;74891;59.208;18.220;2024-03-08T08:21:03;5.63;;;2.45;;
84662;SDS011;74891;59.208;18.220;2024-03-08T08:23:34;4.60;;;2.35;;
84662;SDS011;74891;59.208;18.220;2024-03-08T08:26:03;7.47;;;2.05;;
84662;SDS011;74891;59.208;18.220;2024-03-08T08:28:29;20.25;;;3.28;;
84662;SDS011;74891;59.208;18.220;2024-03-08T08:30:55;6.63;;;2.70;;
84662;SDS011;74891;59.208;18.220;2024-03-08T08:33:24;3.55;;;2.28;;
84662;SDS011;74891;59.208;18.220;2024-03-08T08:35:56;4.47;;;1.75;;
84662;SDS011;74891;59.208;18.220;2024-03-08T08:38:24;3.88;;;1.92;;
84662;SDS011;74891;59.208;18.220;2024-03-08T08:40:49;3.53;;;2.10;;
84662;SDS011;74891;59.208;18.220;2024-03-08T08:43:17;4.55;;;1.92;;
84662;SDS011;74891;59.208;18.220;2024-03-08T08:45:44;5.18;;;1.73;;
84662;SDS011;74891;59.208;18.220;2024-03-08T08:48:12;3.65;;;1.80;;
84662;SDS011;74891;59.208;18.220;2024-03-08T08:50:37;4.50;;;1.77;;
84662;SDS011;74891;59.208;18.220;2024-03-08T08:53:06;4.15;;;1.90;;
84662;SDS011;74891;59.208;18.220;2024-03-08T08:55:35;3.30;;;1.90;;
84662;SDS011;74891;59.208;18.220;2024-03-08T08:58:01;7.10;;;1.95;;
84662;SDS011;74891;59.208;18.220;2024-03-08T09:00:28;3.90;;;1.90;;
84662;SDS011;74891;59.208;18.220;2024-03-08T09:02:56;3.08;;;1.80;;
84662;SDS011;74891;59.208;18.220;2024-03-08T09:05:24;5.03;;;1.65;;
84662;SDS011;74891;59.208;18.220;2024-03-08T09:07:49;3.70;;;1.60;;
84662;SDS011;74891;59.208;18.220;2024-03-08T09:10:15;4.60;;;1.60;;
84662;SDS011;74891;59.208;18.220;2024-03-08T09:12:44;3.88;;;1.67;;
84662;SDS011;74891;59.208;18.220;2024-03-08T09:15:15;3.67;;;1.80;;
84662;SDS011;74891;59.208;18.220;2024-03-08T09:17:45;7.90;;;2.63;;
84662;SDS011;74891;59.208;18.220;2024-03-08T09:20:13;13.63;;;2.33;;
84662;SDS011;74891;59.208;18.220;2024-03-08T09:22:44;5.10;;;1.95;;
84662;SDS011;74891;59.208;18.220;2024-03-08T09:25:10;3.13;;;1.50;;
84662;SDS011;74891;59.208;18.220;2024-03-08T09:27:36;3.58;;;1.40;;
84662;SDS011;74891;59.208;18.220;2024-03-08T09:30:05;5.93;;;1.70;;
84662;SDS011;74891;59.208;18.220;2024-03-08T09:32:34;3.20;;;1.42;;
84662;SDS011;74891;59.208;18.220;2024-03-08T09:35:02;4.35;;;1.88;;
84662;SDS011;74891;59.208;18.220;2024-03-08T09:37:28;5.65;;;2.03;;
84662;SDS011;74891;59.208;18.220;2024-03-08T09:39:56;9.00;;;1.95;;
84662;SDS011;74891;59.208;18.220;2024-03-08T09:42:24;6.18;;;1.50;;
84662;SDS011;74891;59.208;18.220;2024-03-08T09:44:49;3.28;;;1.33;;
84662;SDS011;74891;59.208;18.220;2024-03-08T09:47:21;6.97;;;2.75;;
84662;SDS011;74891;59.208;18.220;2024-03-08T09:49:49;2.30;;;1.38;;
84662;SDS011;74891;59.208;18.220;2024-03-08T09:52:20;4.15;;;1.75;;
84662;SDS011;74891;59.208;18.220;2024-03-08T09:54:49;4.32;;;1.70;;
84662;SDS011;74891;59.208;18.220;2024-03-08T09:57:15;4.95;;;2.10;;
84662;SDS011;74891;59.208;18.220;2024-03-08T09:59:40;3.00;;;1.30;;
84662;SDS011;74891;59.208;18.220;2024-03-08T10:02:13;2.45;;;1.30;;
84662;SDS011;74891;59.208;18.220;2024-03-08T10:04:40;5.68;;;1.70;;
84662;SDS011;74891;59.208;18.220;2024-03-08T10:07:11;4.05;;;1.30;;
84662;SDS011;74891;59.208;18.220;2024-03-08T10:09:37;3.45;;;1.58;;
84662;SDS011;74891;59.208;18.220;2024-03-08T10:12:09;6.32;;;1.60;;
84662;SDS011;74891;59.208;18.220;2024-03-08T10:14:38;3.38;;;1.58;;
84662;SDS011;74891;59.208;18.220;2024-03-08T10:17:06;2.75;;;1.33;;
84662;SDS011;74891;59.208;18.220;2024-03-08T10:19:38;4.20;;;1.20;;
84662;SDS011;74891;59.208;18.220;2024-03-08T10:22:15;7.18;;;1.70;;
84662;SDS011;74891;59.208;18.220;2024-03-08T10:24:41;3.97;;;1.30;;
84662;SDS011;74891;59.208;18.220;2024-03-08T10:27:07;4.20;;;1.45;;
84662;SDS011;74891;59.208;18.220;2024-03-08T10:29:36;2.00;;;1.13;;
84662;SDS011;74891;59.208;18.220;2024-03-08T10:32:03;4.70;;;1.35;;
84662;SDS011;74891;59.208;18.220;2024-03-08T10:34:32;2.88;;;1.20;;
84662;SDS011;74891;59.208;18.220;2024-03-08T10:37:03;4.18;;;1.13;;
84662;SDS011;74891;59.208;18.220;2024-03-08T10:39:30;2.47;;;1.25;;
84662;SDS011;74891;59.208;18.220;2024-03-08T10:42:16;6.00;;;1.50;;
84662;SDS011;74891;59.208;18.220;2024-03-08T10:45:01;7.80;;;1.42;;
84662;SDS011;74891;59.208;18.220;2024-03-08T10:47:55;6.72;;;1.60;;
84662;SDS011;74891;59.208;18.220;2024-03-08T10:50:46;7.50;;;1.92;;
84662;SDS011;74891;59.208;18.220;2024-03-08T10:53:15;2.65;;;1.38;;
84662;SDS011;74891;59.208;18.220;2024-03-08T10:55:46;1.33;;;0.90;;
84662;SDS011;74891;59.208;18.220;2024-03-08T10:58:21;3.35;;;1.08;;
84662;SDS011;74891;59.208;18.220;2024-03-08T11:01:06;2.75;;;1.48;;
84662;SDS011;74891;59.208;18.220;2024-03-08T11:15:12;2.47;;;1.13;;
84662;SDS011;74891;59.208;18.220;2024-03-08T11:17:49;3.97;;;1.65;;
84662;SDS011;74891;59.208;18.220;2024-03-08T11:20:31;2.00;;;1.02;;
84662;SDS011;74891;59.208;18.220;2024-03-08T11:23:04;1.90;;;1.20;;
84662;SDS011;74891;59.208;18.220;2024-03-08T11:25:33;2.20;;;1.20;;
84662;SDS011;74891;59.208;18.220;2024-03-08T11:28:19;4.35;;;1.55;;
84662;SDS011;74891;59.208;18.220;2024-03-08T11:33:32;7.18;;;1.20;;
84662;SDS011;74891;59.208;18.220;2024-03-08T11:38:32;4.78;;;1.67;;
84662;SDS011;74891;59.208;18.220;2024-03-08T11:43:33;3.35;;;1.40;;
84662;SDS011;74891;59.208;18.220;2024-03-08T11:49:19;2.03;;;1.10;;
84662;SDS011;74891;59.208;18.220;2024-03-08T11:51:45;2.55;;;1.15;;
84662;SDS011;74891;59.208;18.220;2024-03-08T11:54:15;2.97;;;1.30;;
84662;SDS011;74891;59.208;18.220;2024-03-08T11:56:46;2.08;;;1.02;;
84662;SDS011;74891;59.208;18.220;2024-03-08T12:02:01;3.20;;;1.30;;
84662;SDS011;74891;59.208;18.220;2024-03-08T12:04:46;5.35;;;1.42;;
84662;SDS011;74891;59.208;18.220;2024-03-08T12:07:24;2.90;;;1.58;;
84662;SDS011;74891;59.208;18.220;2024-03-08T12:10:23;3.53;;;1.33;;
84662;SDS011;74891;59.208;18.220;2024-03-08T12:12:51;2.88;;;1.10;;
84662;SDS011;74891;59.208;18.220;2024-03-08T12:15:22;3.15;;;1.20;;
84662;SDS011;74891;59.208;18.220;2024-03-08T12:17:52;2.00;;;1.13;;
84662;SDS011;74891;59.208;18.220;2024-03-08T12:22:57;4.05;;;1.30;;
84662;SDS011;74891;59.208;18.220;2024-03-08T12:25:31;41.58;;;2.75;;
84662;SDS011;74891;59.208;18.220;2024-03-08T12:28:09;6.50;;;1.85;;
84662;SDS011;74891;59.208;18.220;2024-03-08T12:36:35;4.03;;;1.90;;
84662;SDS011;74891;59.208;18.220;2024-03-08T12:39:03;1.83;;;1.17;;
84662;SDS011;74891;59.208;18.220;2024-03-08T12:41:32;6.40;;;1.42;;
84662;SDS011;74891;59.208;18.220;2024-03-08T12:44:07;1.80;;;1.10;;
84662;SDS011;74891;59.208;18.220;2024-03-08T12:46:35;3.25;;;1.25;;
84662;SDS011;74891;59.208;18.220;2024-03-08T12:49:03;3.47;;;1.40;;
84662;SDS011;74891;59.208;18.220;2024-03-08T12:51:32;2.08;;;1.35;;
84662;SDS011;74891;59.208;18.220;2024-03-08T12:54:01;2.95;;;1.45;;
84662;SDS011;74891;59.208;18.220;2024-03-08T12:56:30;2.63;;;1.30;;
84662;SDS011;74891;59.208;18.220;2024-03-08T12:58:58;3.90;;;1.48;;
84662;SDS011;74891;59.208;18.220;2024-03-08T13:01:23;4.05;;;1.30;;
84662;SDS011;74891;59.208;18.220;2024-03-08T13:04:09;3.20;;;1.58;;
84662;SDS011;74891;59.208;18.220;2024-03-08T13:06:38;3.53;;;1.20;;
84662;SDS011;74891;59.208;18.220;2024-03-08T13:09:07;2.67;;;1.40;;
84662;SDS011;74891;59.208;18.220;2024-03-08T13:11:44;3.42;;;1.40;;
84662;SDS011;74891;59.208;18.220;2024-03-08T13:14:16;2.72;;;1.23;;
84662;SDS011;74891;59.208;18.220;2024-03-08T13:16:43;2.13;;;1.20;;
84662;SDS011;74891;59.208;18.220;2024-03-08T13:19:13;2.25;;;1.30;;
84662;SDS011;74891;59.208;18.220;2024-03-08T13:21:39;4.38;;;1.58;;
84662;SDS011;74891;59.208;18.220;2024-03-08T13:24:10;2.97;;;1.15;;
84662;SDS011;74891;59.208;18.220;2024-03-08T13:26:41;4.20;;;1.50;;
84662;SDS011;74891;59.208;18.220;2024-03-08T13:29:18;3.05;;;1.30;;
84662;SDS011;74891;59.208;18.220;2024-03-08T13:31:46;2.38;;;1.15;;
84662;SDS011;74891;59.208;18.220;2024-03-08T13:34:16;2.63;;;1.20;;
84662;SDS011;74891;59.208;18.220;2024-03-08T13:36:57;7.70;;;1.52;;
84662;SDS011;74891;59.208;18.220;2024-03-08T13:39:26;32.95;;;3.88;;
84662;SDS011;74891;59.208;18.220;2024-03-08T13:41:56;3.65;;;1.38;;
84662;SDS011;74891;59.208;18.220;2024-03-08T13:44:22;4.30;;;1.42;;
84662;SDS011;74891;59.208;18.220;2024-03-08T13:46:47;8.70;;;1.90;;
84662;SDS011;74891;59.208;18.220;2024-03-08T13:51:44;5.50;;;1.52;;
84662;SDS011;74891;59.208;18.220;2024-03-08T13:54:20;2.60;;;1.30;;
84662;SDS011;74891;59.208;18.220;2024-03-08T13:56:46;3.50;;;1.50;;
84662;SDS011;74891;59.208;18.220;2024-03-08T13:59:14;3.35;;;1.15;;
84662;SDS011;74891;59.208;18.220;2024-03-08T14:01:50;1.55;;;1.13;;
84662;SDS011;74891;59.208;18.220;2024-03-08T14:04:26;4.28;;;1.35;;
84662;SDS011;74891;59.208;18.220;2024-03-08T14:06:56;2.22;;;1.10;;
84662;SDS011;74891;59.208;18.220;2024-03-08T14:09:26;5.47;;;1.60;;
84662;SDS011;74891;59.208;18.220;2024-03-08T14:11:54;3.45;;;1.25;;
84662;SDS011;74891;59.208;18.220;2024-03-08T14:14:26;5.55;;;1.42;;
84662;SDS011;74891;59.208;18.220;2024-03-08T14:16:55;5.35;;;2.03;;
84662;SDS011;74891;59.208;18.220;2024-03-08T14:19:47;4.25;;;2.20;;
84662;SDS011;74891;59.208;18.220;2024-03-08T14:22:15;8.52;;;1.45;;
84662;SDS011;74891;59.208;18.220;2024-03-08T14:24:41;6.10;;;1.23;;
84662;SDS011;74891;59.208;18.220;2024-03-08T14:27:14;3.30;;;1.27;;
84662;SDS011;74891;59.208;18.220;2024-03-08T14:29:40;3.60;;;1.55;;
84662;SDS011;74891;59.208;18.220;2024-03-08T14:32:21;2.40;;;1.02;;
84662;SDS011;74891;59.208;18.220;2024-03-08T14:34:51;2.95;;;1.23;;
84662;SDS011;74891;59.208;18.220;2024-03-08T14:37:23;2.63;;;1.25;;
84662;SDS011;74891;59.208;18.220;2024-03-08T14:39:59;7.70;;;1.70;;
84662;SDS011;74891;59.208;18.220;2024-03-08T14:42:25;3.63;;;1.30;;
84662;SDS011;74891;59.208;18.220;2024-03-08T14:44:55;4.10;;;1.63;;
84662;SDS011;74891;59.208;18.220;2024-03-08T14:47:24;2.22;;;1.42;;
84662;SDS011;74891;59.208;18.220;2024-03-08T14:49:55;2.50;;;1.10;;
84662;SDS011;74891;59.208;18.220;2024-03-08T14:52:21;5.15;;;1.40;;
84662;SDS011;74891;59.208;18.220;2024-03-08T14:54:55;3.92;;;1.45;;
84662;SDS011;74891;59.208;18.220;2024-03-08T14:57:21;5.47;;;1.63;;
84662;SDS011;74891;59.208;18.220;2024-03-08T14:59:50;3.40;;;1.27;;
84662;SDS011;74891;59.208;18.220;2024-03-08T15:02:29;1.98;;;1.33;;
84662;SDS011;74891;59.208;18.220;2024-03-08T15:04:57;2.92;;;1.33;;
84662;SDS011;74891;59.208;18.220;2024-03-08T15:07:35;6.53;;;1.77;;
84662;SDS011;74891;59.208;18.220;2024-03-08T15:10:10;2.45;;;1.48;;
84662;SDS011;74891;59.208;18.220;2024-03-08T15:12:51;3.33;;;1.80;;
84662;SDS011;74891;59.208;18.220;2024-03-08T15:15:21;2.78;;;1.58;;
84662;SDS011;74891;59.208;18.220;2024-03-08T15:17:48;3.60;;;1.65;;
84662;SDS011;74891;59.208;18.220;2024-03-08T15:20:24;3.22;;;1.50;;
84662;SDS011;74891;59.208;18.220;2024-03-08T15:22:59;4.95;;;1.70;;
84662;SDS011;74891;59.208;18.220;2024-03-08T15:28:32;3.97;;;1.33;;
84662;SDS011;74891;59.208;18.220;2024-03-08T15:31:05;5.07;;;1.90;;
84662;SDS011;74891;59.208;18.220;2024-03-08T15:33:35;4.53;;;2.05;;
84662;SDS011;74891;59.208;18.220;2024-03-08T15:36:22;1.50;;;1.10;;
84662;SDS011;74891;59.208;18.220;2024-03-08T15:38:58;3.33;;;1.90;;
84662;SDS011;74891;59.208;18.220;2024-03-08T15:41:28;3.15;;;1.50;;
84662;SDS011;74891;59.208;18.220;2024-03-08T15:43:54;2.92;;;1.80;;
84662;SDS011;74891;59.208;18.220;2024-03-08T15:49:06;2.85;;;1.60;;
84662;SDS011;74891;59.208;18.220;2024-03-08T15:51:36;2.72;;;1.67;;